createdAt,value
2019-04-05T00:00:45.885Z,83.30
2019-04-05T00:05:51.358Z,83.10
2019-04-05T00:10:56.843Z,83.00
2019-04-05T00:16:02.457Z,82.70
2019-04-05T00:21:07.865Z,82.70
2019-04-05T00:26:13.316Z,82.60
2019-04-05T00:31:18.737Z,82.50
2019-04-05T00:36:24.215Z,82.40
2019-04-05T00:41:29.727Z,82.40
2019-04-05T00:46:35.211Z,82.40
2019-04-05T00:51:40.820Z,82.40
2019-04-05T00:56:46.355Z,82.50
2019-04-05T01:01:51.899Z,82.40
2019-04-05T01:06:57.611Z,82.40
2019-04-05T01:12:04.749Z,82.30
2019-04-05T01:17:10.425Z,82.30
2019-04-05T01:22:16.081Z,82.30
2019-04-05T01:27:21.595Z,82.10
2019-04-05T01:32:27.343Z,82.10
2019-04-05T01:37:33.071Z,82.10
2019-04-05T01:42:39.038Z,82.10
2019-04-05T01:47:44.448Z,82.00
2019-04-05T01:52:49.866Z,82.00
2019-04-05T01:57:55.332Z,82.00
2019-04-05T02:03:02.110Z,82.10
2019-04-05T02:08:07.561Z,82.20
2019-04-05T02:13:13.050Z,82.20
2019-04-05T02:18:18.509Z,82.40
2019-04-05T02:23:23.933Z,82.40
2019-04-05T02:28:29.428Z,82.50
2019-04-05T02:33:34.925Z,82.50
2019-04-05T02:38:40.416Z,82.60
2019-04-05T02:43:46.071Z,82.50
2019-04-05T02:48:51.495Z,82.60
2019-04-05T02:53:57.262Z,82.60
2019-04-05T02:59:02.720Z,82.70
2019-04-05T03:04:08.174Z,82.80
2019-04-05T03:09:13.603Z,82.80
2019-04-05T03:14:19.442Z,83.00
2019-04-05T03:19:29.712Z,83.00
2019-04-05T03:24:36.345Z,83.00
2019-04-05T03:29:41.949Z,83.00
2019-04-05T03:34:47.602Z,83.00
2019-04-05T03:39:53.096Z,83.00
2019-04-05T03:44:58.572Z,83.00
2019-04-05T03:50:04.118Z,83.10
2019-04-05T03:55:09.588Z,83.10
2019-04-05T04:00:15.021Z,83.20
2019-04-05T04:05:20.418Z,83.40
2019-04-05T04:10:25.926Z,83.40
2019-04-05T04:15:31.519Z,83.50
2019-04-05T04:20:44.031Z,83.70
2019-04-05T04:25:49.443Z,83.80
2019-04-05T04:30:54.919Z,83.90
2019-04-05T04:36:00.372Z,83.90
2019-04-05T04:41:05.822Z,83.90
2019-04-05T04:46:11.243Z,84.00
2019-04-05T04:51:16.651Z,84.10
2019-04-05T04:56:22.156Z,84.10
2019-04-05T05:01:27.587Z,84.10
2019-04-05T05:06:33.095Z,84.00
2019-04-05T05:11:38.590Z,84.10
2019-04-05T05:16:44.059Z,83.90
2019-04-05T05:21:49.545Z,83.90
2019-04-05T05:26:55.147Z,83.90
2019-04-05T05:32:00.598Z,83.90
2019-04-05T05:37:06.048Z,83.90
2019-04-05T05:42:11.568Z,83.70
2019-04-05T05:47:17.157Z,83.40
2019-04-05T05:52:22.902Z,83.30
2019-04-05T05:57:28.506Z,83.10
2019-04-05T06:02:33.930Z,82.80
2019-04-05T06:07:39.340Z,82.50
2019-04-05T06:12:44.870Z,82.10
2019-04-05T06:17:50.522Z,81.60
2019-04-05T06:22:55.957Z,81.10
2019-04-05T06:28:02.731Z,80.60
2019-04-05T06:33:08.259Z,80.30
2019-04-05T06:38:13.698Z,80.10
2019-04-05T06:43:19.255Z,79.80
2019-04-05T06:48:24.783Z,79.40
2019-04-05T06:53:30.213Z,79.40
2019-04-05T06:58:35.695Z,79.00
2019-04-05T07:03:41.102Z,78.80
2019-04-05T07:08:53.537Z,78.30
2019-04-05T07:13:53.725Z,77.20
2019-04-05T07:18:59.164Z,75.90
2019-04-05T07:24:04.637Z,74.50
2019-04-05T07:29:10.093Z,73.50
2019-04-05T07:34:15.556Z,72.80
2019-04-05T07:39:20.955Z,71.80
2019-04-05T07:44:26.415Z,70.90
2019-04-05T07:49:31.845Z,69.90
2019-04-05T07:54:37.315Z,67.90
2019-04-05T07:59:42.845Z,63.10
2019-04-05T08:04:48.316Z,60.10
2019-04-05T08:09:53.802Z,58.10
2019-04-05T08:14:59.239Z,56.70
2019-04-05T08:20:04.693Z,55.70
2019-04-05T08:25:10.179Z,54.80
2019-04-05T08:30:15.664Z,53.60
2019-04-05T08:35:21.120Z,51.90
2019-04-05T08:40:26.639Z,49.60
2019-04-05T08:45:32.132Z,47.00
2019-04-05T08:50:37.651Z,46.00
2019-04-05T08:55:43.102Z,44.70
2019-04-05T09:00:48.711Z,45.70
2019-04-05T09:05:54.229Z,47.80
2019-04-05T09:10:59.655Z,49.50
2019-04-05T09:16:05.189Z,50.70
2019-04-05T09:21:10.719Z,51.40
2019-04-05T09:26:16.313Z,51.20
2019-04-05T09:31:21.785Z,52.30
2019-04-05T09:36:27.197Z,53.40
2019-04-05T09:41:32.649Z,54.50
2019-04-05T09:46:46.468Z,54.70
2019-04-05T09:51:45.461Z,54.10
2019-04-05T09:56:50.851Z,52.90
2019-04-05T10:01:56.333Z,52.60
2019-04-05T10:07:01.806Z,53.70
2019-04-05T10:12:07.249Z,54.50
2019-04-05T10:17:14.590Z,55.20
2019-04-05T10:22:20.092Z,55.10
2019-04-05T10:27:25.531Z,55.70
2019-04-05T10:32:31.246Z,55.10
2019-04-05T10:37:36.661Z,54.40
2019-04-05T10:42:42.115Z,54.10
2019-04-05T10:47:47.568Z,53.80
2019-04-05T10:52:53.242Z,53.10
2019-04-05T10:57:58.684Z,52.40
2019-04-05T11:03:04.121Z,52.30
2019-04-05T11:08:09.620Z,52.60
2019-04-05T11:13:15.050Z,53.10
2019-04-05T11:18:20.483Z,54.20
2019-04-05T11:23:25.927Z,55.30
2019-04-05T11:28:31.386Z,55.90
2019-04-05T11:33:36.840Z,56.60
2019-04-05T11:38:42.780Z,57.10
2019-04-05T11:43:48.250Z,57.40
2019-04-05T11:48:53.697Z,57.60
2019-04-05T11:53:59.189Z,57.80
2019-04-05T11:59:06.887Z,57.40
2019-04-05T12:04:12.295Z,57.10
2019-04-05T12:09:17.742Z,57.00
2019-04-05T12:14:30.146Z,57.60
2019-04-05T12:19:30.399Z,57.50
2019-04-05T12:24:35.823Z,57.40
2019-04-05T12:29:41.369Z,56.80
2019-04-05T12:34:46.979Z,57.00
2019-04-05T12:39:52.458Z,57.30
2019-04-05T12:44:57.957Z,56.70
2019-04-05T12:50:03.503Z,56.90
2019-04-05T12:55:08.952Z,57.10
2019-04-05T13:00:15.268Z,57.50
2019-04-05T13:05:21.728Z,57.70
2019-04-05T13:10:30.326Z,57.90
2019-04-05T13:15:34.802Z,58.30
2019-04-05T13:20:40.525Z,58.90
2019-04-05T13:25:46.221Z,59.30
2019-04-05T13:30:51.854Z,59.60
2019-04-05T13:35:57.277Z,59.50
2019-04-05T13:41:02.906Z,59.50
2019-04-05T13:46:21.020Z,59.20
2019-04-05T13:51:27.293Z,59.20
2019-04-05T13:56:23.110Z,59.50
2019-04-05T14:01:28.708Z,59.60
2019-04-05T14:06:34.334Z,59.50
2019-04-05T14:11:40.134Z,59.90
2019-04-05T14:16:45.804Z,60.40
2019-04-05T14:21:53.554Z,60.70
2019-04-05T14:26:59.044Z,61.00
2019-04-05T14:32:20.558Z,61.30
2019-04-05T14:37:14.072Z,61.40
2019-04-05T14:42:19.788Z,61.30
2019-04-05T14:47:27.786Z,61.10
2019-04-05T14:52:32.922Z,61.10
2019-04-05T14:57:38.423Z,60.90
2019-04-05T15:02:44.108Z,61.10
2019-04-05T15:07:51.165Z,61.30
2019-04-05T15:13:00.040Z,62.20
2019-04-05T15:18:04.508Z,62.70
2019-04-05T15:23:13.762Z,63.00
2019-04-05T15:28:17.199Z,63.10
2019-04-05T15:33:22.752Z,63.30
2019-04-05T15:38:31.248Z,63.30
2019-04-05T15:43:35.708Z,63.70
2019-04-05T15:48:41.129Z,64.00
2019-04-05T15:53:47.749Z,64.70
2019-04-05T15:58:55.319Z,65.40
2019-04-05T16:04:03.317Z,66.10
2019-04-05T16:09:12.962Z,66.00
2019-04-05T16:14:22.139Z,66.40
2019-04-05T16:19:27.684Z,66.80
2019-04-05T16:24:33.285Z,67.00
2019-04-05T16:29:38.767Z,67.60
2019-04-05T16:34:44.236Z,67.50
2019-04-05T16:39:49.672Z,67.70
2019-04-05T16:44:55.314Z,67.90
2019-04-05T16:50:00.910Z,68.40
2019-04-05T16:55:06.790Z,68.60
2019-04-05T17:00:12.829Z,69.00
2019-04-05T17:05:18.232Z,69.20
2019-04-05T17:10:23.886Z,69.60
2019-04-05T17:15:29.459Z,69.70
2019-04-05T17:20:35.158Z,70.00
2019-04-05T17:25:40.602Z,70.30
2019-04-05T17:30:46.222Z,70.50
2019-04-05T17:35:51.757Z,71.00
2019-04-05T17:40:57.227Z,71.10
2019-04-05T17:46:02.694Z,71.60
2019-04-05T17:51:08.180Z,71.80
2019-04-05T17:56:13.598Z,71.70
2019-04-05T18:01:19.150Z,71.90
2019-04-05T18:06:24.611Z,72.30
2019-04-05T18:11:30.177Z,72.40
2019-04-05T18:16:35.939Z,72.50
2019-04-05T18:21:41.424Z,72.50
2019-04-05T18:26:47.158Z,73.10
2019-04-05T18:31:53.228Z,73.20
2019-04-05T18:36:58.717Z,73.40
2019-04-05T18:42:04.301Z,73.30
2019-04-05T18:47:14.069Z,73.50
2019-04-05T18:52:19.597Z,73.50
2019-04-05T18:57:25.055Z,73.70
2019-04-05T19:02:30.524Z,73.80
2019-04-05T19:07:35.967Z,73.80
2019-04-05T19:12:41.649Z,73.90
2019-04-05T19:17:47.242Z,74.20
2019-04-05T19:22:52.660Z,74.20
2019-04-05T19:27:58.072Z,74.50
2019-04-05T19:53:32.471Z,75.30
2019-04-05T19:58:37.910Z,75.70
2019-04-05T20:03:43.538Z,75.50
2019-04-05T20:08:48.939Z,75.70
2019-04-05T20:13:54.376Z,75.80
2019-04-05T20:18:59.857Z,75.70
2019-04-05T20:24:13.713Z,75.70
2019-04-05T20:29:12.636Z,75.60
2019-04-05T20:34:18.041Z,75.70
2019-04-05T20:39:23.551Z,75.70
2019-04-05T20:44:29.103Z,75.90
2019-04-05T20:49:34.661Z,76.10
2019-04-05T20:54:40.149Z,76.30
2019-04-05T20:59:45.580Z,76.50
2019-04-05T21:04:51.080Z,76.60
2019-04-05T21:09:56.512Z,76.70
2019-04-05T21:15:02.012Z,76.90
2019-04-05T21:20:07.720Z,77.00
2019-04-05T21:25:14.702Z,77.30
2019-04-05T21:30:21.422Z,77.40
2019-04-05T21:35:26.885Z,77.40
2019-04-05T21:40:32.331Z,77.50
2019-04-05T21:45:37.743Z,77.50
2019-04-05T21:50:43.166Z,77.60
2019-04-05T21:55:48.609Z,77.60
2019-04-05T22:01:02.026Z,77.50
2019-04-05T22:06:07.497Z,77.50
2019-04-05T22:11:12.909Z,77.50
2019-04-05T22:16:18.324Z,77.60
2019-04-05T22:21:23.797Z,77.90
2019-04-05T22:26:29.268Z,78.00
2019-04-05T22:31:34.847Z,78.20
2019-04-05T22:36:40.272Z,78.30
2019-04-05T22:41:45.778Z,78.50
2019-04-05T22:46:51.221Z,79.00
2019-04-05T22:51:56.731Z,78.40
2019-04-05T22:57:02.326Z,78.50
2019-04-05T23:02:07.798Z,78.50
2019-04-05T23:07:13.268Z,78.60
2019-04-05T23:12:18.697Z,78.60
2019-04-05T23:17:24.200Z,78.50
2019-04-05T23:22:29.655Z,78.50
2019-04-05T23:27:35.074Z,78.50
2019-04-05T23:32:40.575Z,78.50
2019-04-05T23:37:46.080Z,78.40
2019-04-05T23:42:51.533Z,78.40
2019-04-05T23:47:56.973Z,78.60
2019-04-05T23:53:02.421Z,78.50
2019-04-05T23:58:07.957Z,78.50
